createdAt,value
2018-07-10T00:03:54.738Z,2.33
2018-07-10T00:07:35.450Z,2.77
2018-07-10T00:12:17.096Z,2.80
2018-07-10T00:14:45.776Z,1.97
2018-07-10T00:17:14.824Z,2.30
2018-07-10T00:19:43.496Z,1.90
2018-07-10T00:22:12.212Z,2.10
2018-07-10T00:24:40.670Z,1.90
2018-07-10T00:27:09.420Z,1.70
2018-07-10T00:29:38.509Z,2.13
2018-07-10T00:32:08.196Z,2.30
2018-07-10T00:34:36.894Z,2.23
2018-07-10T00:37:06.027Z,2.23
2018-07-10T00:39:34.700Z,2.23
2018-07-10T00:42:03.401Z,2.20
2018-07-10T00:44:32.099Z,2.40
2018-07-10T00:47:00.736Z,2.00
2018-07-10T00:49:30.124Z,2.27
2018-07-10T00:51:58.861Z,2.47
2018-07-10T00:54:27.580Z,2.13
2018-07-10T00:56:56.287Z,1.83
2018-07-10T00:59:25.141Z,2.10
2018-07-10T01:01:55.309Z,2.57
2018-07-10T01:04:24.632Z,2.20
2018-07-10T01:06:53.944Z,3.60
2018-07-10T01:09:22.634Z,1.60
2018-07-10T01:11:52.167Z,2.33
2018-07-10T01:14:20.874Z,2.03
2018-07-10T01:16:49.547Z,1.87
2018-07-10T01:19:18.808Z,2.00
2018-07-10T01:21:48.653Z,2.20
2018-07-10T01:24:18.642Z,2.10
2018-07-10T01:26:48.912Z,1.90
2018-07-10T01:29:23.532Z,2.27
2018-07-10T01:31:53.803Z,2.10
2018-07-10T01:34:23.223Z,2.33
2018-07-10T01:36:52.824Z,2.33
2018-07-10T01:39:21.566Z,2.00
2018-07-10T01:41:50.384Z,2.20
2018-07-10T01:44:19.164Z,2.17
2018-07-10T01:46:47.780Z,1.87
2018-07-10T01:49:16.566Z,2.07
2018-07-10T01:51:45.172Z,2.23
2018-07-10T01:54:14.293Z,1.90
2018-07-10T01:56:42.996Z,2.00
2018-07-10T01:59:11.729Z,1.87
2018-07-10T02:01:40.454Z,1.43
2018-07-10T02:04:10.025Z,2.10
2018-07-10T02:06:39.221Z,1.70
2018-07-10T02:09:08.402Z,2.07
2018-07-10T02:11:37.130Z,1.67
2018-07-10T02:14:07.592Z,1.37
2018-07-10T02:16:36.859Z,1.60
2018-07-10T02:19:05.649Z,1.30
2018-07-10T02:21:35.101Z,1.70
2018-07-10T02:24:03.930Z,1.67
2018-07-10T02:26:32.728Z,2.50
2018-07-10T02:29:01.428Z,1.43
2018-07-10T02:31:30.901Z,1.50
2018-07-10T02:33:59.605Z,1.70
2018-07-10T02:36:28.362Z,1.63
2018-07-10T02:38:58.529Z,1.80
2018-07-10T02:41:27.239Z,1.40
2018-07-10T02:44:02.709Z,1.50
2018-07-10T02:46:36.005Z,1.17
2018-07-10T02:49:17.296Z,1.30
2018-07-10T02:52:00.297Z,1.90
2018-07-10T02:54:32.968Z,1.70
2018-07-10T02:57:02.925Z,1.50
2018-07-10T02:59:34.474Z,1.43
2018-07-10T03:02:03.896Z,1.63
2018-07-10T03:04:34.224Z,1.50
2018-07-10T03:07:03.374Z,1.70
2018-07-10T03:09:32.115Z,1.50
2018-07-10T03:12:01.502Z,1.97
2018-07-10T03:14:30.173Z,1.50
2018-07-10T03:16:59.795Z,1.50
2018-07-10T03:19:29.349Z,2.13
2018-07-10T03:21:58.536Z,1.43
2018-07-10T03:24:27.247Z,1.70
2018-07-10T03:26:56.038Z,1.60
2018-07-10T03:29:25.113Z,1.50
2018-07-10T03:31:53.865Z,1.53
2018-07-10T03:34:22.849Z,1.77
2018-07-10T03:36:51.853Z,1.80
2018-07-10T03:39:20.577Z,2.10
2018-07-10T03:41:49.314Z,1.80
2018-07-10T03:44:19.165Z,1.77
2018-07-10T03:46:47.981Z,1.80
2018-07-10T03:49:16.678Z,1.60
2018-07-10T03:51:45.411Z,1.73
2018-07-10T03:54:14.133Z,1.07
2018-07-10T03:56:43.080Z,1.70
2018-07-10T03:59:11.872Z,2.10
2018-07-10T04:01:41.314Z,1.57
2018-07-10T04:04:10.024Z,1.67
2018-07-10T04:06:38.745Z,1.67
2018-07-10T04:09:08.428Z,1.57
2018-07-10T04:11:42.023Z,1.90
2018-07-10T04:14:10.740Z,1.63
2018-07-10T04:16:39.699Z,2.13
2018-07-10T04:19:08.416Z,1.60
2018-07-10T04:21:37.132Z,1.40
2018-07-10T04:24:12.748Z,2.20
2018-07-10T04:26:51.814Z,1.97
2018-07-10T04:29:26.805Z,1.50
2018-07-10T04:31:58.599Z,1.80
2018-07-10T04:34:29.686Z,1.60
2018-07-10T04:37:04.971Z,1.80
2018-07-10T04:39:35.329Z,1.80
2018-07-10T04:42:26.207Z,1.50
2018-07-10T04:45:02.321Z,1.87
2018-07-10T04:47:34.555Z,2.10
2018-07-10T04:50:10.186Z,2.30
2018-07-10T04:52:41.626Z,2.20
2018-07-10T04:55:12.774Z,1.90
2018-07-10T04:58:04.941Z,1.70
2018-07-10T05:00:35.865Z,2.07
2018-07-10T05:03:04.577Z,2.13
2018-07-10T05:05:34.177Z,2.33
2018-07-10T05:08:04.961Z,2.13
2018-07-10T05:10:36.207Z,2.00
2018-07-10T05:13:06.438Z,1.60
2018-07-10T05:15:36.320Z,1.70
2018-07-10T05:18:08.221Z,3.77
2018-07-10T05:20:37.126Z,1.73
2018-07-10T05:23:05.852Z,2.10
2018-07-10T05:25:37.265Z,1.87
2018-07-10T05:28:05.944Z,1.97
2018-07-10T05:30:36.173Z,2.00
2018-07-10T05:33:05.433Z,1.97
2018-07-10T05:35:34.933Z,2.13
2018-07-10T05:38:06.445Z,1.57
2018-07-10T05:40:35.160Z,1.70
2018-07-10T05:43:20.813Z,1.97
2018-07-10T05:45:49.533Z,2.03
2018-07-10T05:48:18.638Z,2.10
2018-07-10T05:50:47.335Z,1.70
2018-07-10T05:53:16.013Z,2.00
2018-07-10T05:55:47.966Z,1.60
2018-07-10T05:58:17.291Z,1.83
2018-07-10T06:00:45.988Z,1.63
2018-07-10T06:03:14.693Z,1.30
2018-07-10T06:05:43.670Z,1.37
2018-07-10T06:08:13.930Z,1.67
2018-07-10T06:10:43.063Z,1.63
2018-07-10T06:13:11.896Z,1.50
2018-07-10T06:15:40.673Z,1.80
2018-07-10T06:18:09.571Z,1.70
2018-07-10T06:20:39.874Z,1.40
2018-07-10T06:23:09.192Z,1.60
2018-07-10T06:25:37.950Z,2.40
2018-07-10T06:28:09.711Z,2.30
2018-07-10T06:30:39.443Z,1.37
2018-07-10T06:33:17.219Z,1.33
2018-07-10T06:35:48.301Z,1.50
2018-07-10T06:38:18.298Z,1.73
2018-07-10T06:40:51.252Z,1.60
2018-07-10T06:43:55.296Z,1.87
2018-07-10T06:46:45.598Z,1.50
2018-07-10T06:49:25.357Z,1.40
2018-07-10T06:52:10.070Z,4.03
2018-07-10T06:55:05.085Z,1.90
2018-07-10T06:57:34.999Z,1.77
2018-07-10T07:00:10.589Z,2.40
2018-07-10T07:02:40.089Z,1.70
2018-07-10T07:05:09.050Z,2.23
2018-07-10T07:07:39.448Z,1.87
2018-07-10T07:10:10.092Z,2.07
2018-07-10T07:12:40.560Z,1.83
2018-07-10T07:15:10.975Z,2.40
2018-07-10T07:17:43.059Z,1.80
2018-07-10T07:20:11.772Z,2.17
2018-07-10T07:22:40.477Z,2.10
2018-07-10T07:25:09.174Z,1.87
2018-07-10T07:27:37.900Z,2.13
2018-07-10T07:30:06.604Z,2.23
2018-07-10T07:32:36.129Z,2.43
2018-07-10T07:35:04.955Z,2.40
2018-07-10T07:37:37.490Z,1.97
2018-07-10T07:40:06.319Z,2.33
2018-07-10T07:42:35.081Z,1.93
2018-07-10T07:45:03.948Z,2.30
2018-07-10T07:47:32.733Z,2.37
2018-07-10T07:50:01.448Z,2.43
2018-07-10T07:52:31.397Z,2.40
2018-07-10T07:55:01.346Z,2.40
2018-07-10T07:57:30.038Z,2.67
2018-07-10T07:59:58.775Z,2.87
2018-07-10T08:02:27.500Z,2.83
2018-07-10T08:04:56.160Z,2.83
2018-07-10T08:07:26.546Z,3.03
2018-07-10T08:09:56.807Z,2.50
2018-07-10T08:12:26.524Z,2.87
2018-07-10T08:14:55.648Z,2.60
2018-07-10T08:17:25.488Z,7.97
2018-07-10T08:19:56.221Z,3.40
2018-07-10T08:22:25.705Z,2.30
2018-07-10T08:24:54.797Z,3.13
2018-07-10T08:27:24.328Z,2.60
2018-07-10T08:29:53.645Z,2.83
2018-07-10T08:32:22.313Z,2.67
2018-07-10T08:34:50.997Z,2.73
2018-07-10T08:37:19.753Z,3.30
2018-07-10T08:39:49.033Z,3.10
2018-07-10T08:42:18.079Z,3.43
2018-07-10T08:44:46.778Z,2.97
2018-07-10T08:47:15.049Z,3.30
2018-07-10T08:49:43.730Z,3.93
2018-07-10T08:52:13.311Z,2.83
2018-07-10T08:54:42.661Z,2.60
2018-07-10T08:57:11.885Z,2.33
2018-07-10T08:59:40.624Z,3.03
2018-07-10T09:02:10.001Z,2.70
2018-07-10T09:04:38.615Z,2.90
2018-07-10T09:07:09.113Z,2.43
2018-07-10T09:09:37.876Z,2.33
2018-07-10T09:12:06.550Z,2.30
2018-07-10T09:14:35.251Z,2.40
2018-07-10T09:17:03.978Z,2.57
2018-07-10T09:19:33.279Z,3.00
2018-07-10T09:22:07.445Z,3.23
2018-07-10T09:24:42.565Z,2.50
2018-07-10T09:27:13.221Z,2.70
2018-07-10T09:29:41.921Z,2.40
2018-07-10T09:32:12.083Z,2.73
2018-07-10T09:34:40.767Z,3.20
2018-07-10T09:38:13.696Z,3.20
2018-07-10T09:40:42.597Z,3.00
2018-07-10T09:43:11.394Z,2.77
2018-07-10T09:45:40.717Z,3.40
2018-07-10T09:48:10.162Z,3.10
2018-07-10T09:50:40.179Z,2.93
2018-07-10T09:53:09.520Z,3.10
2018-07-10T09:55:38.206Z,3.27
2018-07-10T09:58:08.842Z,3.57
2018-07-10T10:00:43.015Z,3.03
2018-07-10T10:03:12.971Z,3.83
2018-07-10T10:05:43.784Z,3.67
2018-07-10T10:08:13.089Z,3.30
2018-07-10T10:10:41.945Z,3.33
2018-07-10T10:13:10.631Z,3.20
2018-07-10T10:15:39.304Z,3.47
2018-07-10T10:18:09.929Z,4.07
2018-07-10T10:20:40.432Z,3.20
2018-07-10T10:23:13.420Z,4.00
2018-07-10T10:25:49.393Z,2.90
2018-07-10T10:28:19.755Z,4.07
2018-07-10T10:30:48.409Z,3.70
2018-07-10T10:33:17.719Z,3.30
2018-07-10T10:35:46.416Z,3.93
2018-07-10T10:38:16.682Z,3.80
2018-07-10T10:40:47.369Z,3.37
2018-07-10T10:43:16.572Z,3.47
2018-07-10T10:45:45.662Z,3.63
2018-07-10T10:48:15.913Z,3.30
2018-07-10T10:50:48.245Z,3.67
2018-07-10T10:53:17.809Z,3.03
2018-07-10T10:55:47.115Z,3.60
2018-07-10T10:58:15.850Z,4.00
2018-07-10T11:00:45.200Z,4.07
2018-07-10T11:03:15.391Z,4.00
2018-07-10T11:05:45.604Z,3.47
2018-07-10T11:08:14.776Z,3.30
2018-07-10T11:10:44.929Z,4.40
2018-07-10T11:13:15.657Z,3.70
2018-07-10T11:15:45.893Z,5.57
2018-07-10T11:18:39.858Z,3.93
2018-07-10T11:21:13.902Z,4.47
2018-07-10T11:23:53.003Z,4.23
2018-07-10T11:26:33.330Z,3.90
2018-07-10T11:29:03.038Z,4.63
2018-07-10T11:31:31.725Z,4.40
2018-07-10T11:34:00.438Z,4.87
2018-07-10T11:36:29.401Z,3.83
2018-07-10T11:39:05.785Z,4.70
2018-07-10T11:41:41.470Z,5.10
2018-07-10T11:44:10.141Z,4.13
2018-07-10T11:46:39.225Z,4.00
2018-07-10T11:49:08.202Z,4.37
2018-07-10T11:51:36.929Z,4.57
2018-07-10T11:54:06.251Z,4.80
2018-07-10T11:56:34.928Z,4.27
2018-07-10T11:59:04.277Z,4.30
2018-07-10T12:01:34.532Z,4.60
2018-07-10T12:04:04.968Z,4.60
2018-07-10T12:06:43.530Z,4.47
2018-07-10T12:09:12.239Z,4.87
2018-07-10T12:11:40.867Z,4.90
2018-07-10T12:14:09.590Z,5.13
2018-07-10T12:16:38.945Z,4.70
2018-07-10T12:19:08.027Z,5.20
2018-07-10T12:21:37.320Z,4.73
2018-07-10T12:24:06.853Z,4.07
2018-07-10T12:26:36.533Z,4.07
2018-07-10T12:29:05.212Z,4.97
2018-07-10T12:31:34.470Z,5.77
2018-07-10T12:34:03.169Z,5.37
2018-07-10T12:36:31.809Z,5.40
2018-07-10T12:39:00.486Z,5.90
2018-07-10T12:41:29.251Z,5.07
2018-07-10T12:43:57.984Z,5.47
2018-07-10T12:46:26.664Z,5.30
2018-07-10T12:48:55.741Z,5.17
2018-07-10T12:51:24.490Z,5.73
2018-07-10T12:53:53.280Z,5.57
2018-07-10T12:56:22.789Z,5.30
2018-07-10T12:58:51.537Z,4.80
2018-07-10T13:01:20.264Z,4.83
2018-07-10T13:03:49.974Z,4.67
2018-07-10T13:06:19.938Z,4.80
2018-07-10T13:08:48.621Z,4.50
2018-07-10T13:11:17.299Z,6.20
2018-07-10T13:13:46.554Z,5.10
2018-07-10T13:16:15.265Z,5.47
2018-07-10T13:18:45.500Z,5.87
2018-07-10T13:21:14.222Z,5.03
2018-07-10T13:23:42.513Z,4.67
2018-07-10T13:26:12.018Z,4.77
2018-07-10T13:28:40.700Z,5.60
2018-07-10T13:31:09.472Z,5.33
2018-07-10T13:33:38.206Z,4.80
2018-07-10T13:36:06.931Z,5.40
2018-07-10T13:38:35.664Z,6.10
2018-07-10T13:41:04.349Z,5.57
2018-07-10T13:43:33.019Z,6.40
2018-07-10T13:46:01.767Z,6.43
2018-07-10T13:48:30.562Z,6.43
2018-07-10T13:50:59.299Z,6.07
2018-07-10T13:53:28.036Z,6.53
2018-07-10T13:55:56.739Z,6.53
2018-07-10T13:58:26.997Z,6.90
2018-07-10T14:01:01.214Z,7.53
2018-07-10T14:03:30.263Z,7.77
2018-07-10T14:05:59.625Z,7.00
2018-07-10T14:08:28.711Z,8.07
2018-07-10T14:10:57.389Z,7.27
2018-07-10T14:13:26.135Z,7.23
2018-07-10T14:15:54.876Z,7.57
2018-07-10T14:18:24.382Z,7.50
2018-07-10T14:20:55.591Z,8.03
2018-07-10T14:23:24.260Z,7.97
2018-07-10T14:25:53.254Z,7.13
2018-07-10T14:28:22.134Z,7.87
2018-07-10T14:30:50.873Z,8.07
2018-07-10T14:33:20.222Z,7.73
2018-07-10T14:35:48.906Z,8.20
2018-07-10T14:38:20.330Z,7.87
2018-07-10T14:40:49.973Z,8.03
2018-07-10T14:43:21.608Z,7.17
2018-07-10T14:45:51.864Z,8.27
2018-07-10T14:48:20.744Z,8.13
2018-07-10T14:50:52.902Z,6.73
2018-07-10T14:53:21.674Z,7.07
2018-07-10T14:55:50.445Z,6.70
2018-07-10T14:58:19.196Z,7.83
2018-07-10T15:00:47.893Z,6.60
2018-07-10T15:03:16.728Z,7.00
2018-07-10T15:05:45.365Z,5.37
2018-07-10T15:08:14.117Z,4.80
2018-07-10T15:10:42.806Z,4.80
2018-07-10T15:13:12.202Z,4.57
2018-07-10T15:15:40.928Z,4.47
2018-07-10T15:18:16.237Z,4.43
2018-07-10T15:20:44.873Z,4.00
2018-07-10T15:23:14.126Z,5.17
2018-07-10T15:25:42.945Z,3.77
2018-07-10T15:28:11.652Z,4.53
2018-07-10T15:30:40.346Z,4.90
2018-07-10T15:33:09.041Z,3.50
2018-07-10T15:35:38.563Z,4.10
2018-07-10T15:38:07.245Z,3.80
2018-07-10T15:40:36.394Z,3.93
2018-07-10T15:43:05.101Z,4.60
2018-07-10T15:45:33.732Z,3.90
2018-07-10T15:48:03.555Z,3.20
2018-07-10T15:50:32.272Z,4.10
2018-07-10T15:53:00.964Z,3.67
2018-07-10T15:55:30.250Z,3.67
2018-07-10T15:57:59.141Z,3.87
2018-07-10T16:00:27.440Z,3.80
2018-07-10T16:02:56.482Z,3.97
2018-07-10T16:05:25.268Z,3.63
2018-07-10T16:08:14.533Z,4.40
2018-07-10T16:10:45.543Z,3.80
2018-07-10T16:13:15.286Z,3.93
2018-07-10T16:15:43.521Z,3.13
2018-07-10T16:18:12.468Z,2.00
2018-07-10T16:20:43.057Z,2.10
2018-07-10T16:23:12.750Z,2.03
2018-07-10T16:25:43.489Z,2.20
2018-07-10T16:28:17.864Z,2.60
2018-07-10T16:30:49.376Z,1.80
2018-07-10T16:33:26.157Z,1.57
2018-07-10T16:35:55.365Z,1.70
2018-07-10T16:38:24.062Z,2.83
2018-07-10T16:40:52.874Z,2.70
2018-07-10T16:43:26.776Z,1.70
2018-07-10T16:45:56.045Z,2.03
2018-07-10T16:48:33.327Z,1.97
2018-07-10T16:51:07.662Z,2.10
2018-07-10T16:53:37.725Z,2.70
2018-07-10T16:56:07.406Z,2.53
2018-07-10T16:58:39.389Z,2.17
2018-07-10T17:01:08.595Z,2.77
2018-07-10T17:03:37.641Z,2.30
2018-07-10T17:06:06.475Z,2.57
2018-07-10T17:08:35.550Z,2.90
2018-07-10T17:11:04.264Z,2.80
2018-07-10T17:13:32.996Z,2.80
2018-07-10T17:16:02.690Z,2.40
2018-07-10T17:18:31.409Z,2.90
2018-07-10T17:21:00.639Z,3.00
2018-07-10T17:23:29.329Z,2.83
2018-07-10T17:25:58.090Z,2.70
2018-07-10T17:28:26.818Z,2.80
2018-07-10T17:30:55.697Z,2.50
2018-07-10T17:33:24.418Z,3.13
2018-07-10T17:35:53.843Z,3.17
2018-07-10T17:38:22.564Z,2.63
2018-07-10T17:40:51.893Z,3.00
2018-07-10T17:43:20.392Z,3.13
2018-07-10T17:45:49.097Z,2.83
2018-07-10T17:48:18.078Z,2.50
2018-07-10T17:50:48.999Z,2.30
2018-07-10T17:53:17.762Z,2.70
2018-07-10T17:55:47.233Z,2.27
2018-07-10T17:58:18.978Z,2.40
2018-07-10T18:00:47.677Z,2.60
2018-07-10T18:03:16.352Z,2.30
2018-07-10T18:05:45.552Z,2.00
2018-07-10T18:08:14.503Z,2.13
2018-07-10T18:10:43.193Z,1.30
2018-07-10T18:13:12.677Z,1.50
2018-07-10T18:15:41.790Z,1.50
2018-07-10T18:18:11.375Z,1.23
2018-07-10T18:20:40.041Z,0.90
2018-07-10T18:23:08.415Z,0.93
2018-07-10T18:25:37.052Z,0.90
2018-07-10T18:28:05.796Z,1.13
2018-07-10T18:30:34.606Z,0.60
2018-07-10T18:33:03.313Z,0.97
2018-07-10T18:35:32.209Z,1.00
2018-07-10T18:38:02.896Z,1.03
2018-07-10T18:40:31.693Z,0.90
2018-07-10T18:43:00.370Z,0.77
2018-07-10T18:45:29.109Z,0.50
2018-07-10T18:47:57.829Z,0.80
2018-07-10T18:50:26.526Z,0.83
2018-07-10T18:52:56.004Z,0.73
2018-07-10T18:55:24.985Z,0.63
2018-07-10T18:58:04.012Z,0.70
2018-07-10T19:00:46.030Z,0.60
2018-07-10T19:03:14.814Z,0.80
2018-07-10T19:05:48.486Z,0.70
2018-07-10T19:08:17.252Z,0.77
2018-07-10T19:10:47.874Z,0.97
2018-07-10T19:13:18.396Z,1.00
2018-07-10T19:15:48.237Z,1.10
2018-07-10T19:18:17.714Z,1.03
2018-07-10T19:20:57.665Z,0.93
2018-07-10T19:23:37.451Z,1.10
2018-07-10T19:26:07.189Z,0.90
2018-07-10T19:28:36.169Z,0.80
2018-07-10T19:31:11.813Z,1.00
2018-07-10T19:33:42.524Z,1.13
2018-07-10T19:36:11.222Z,0.90
2018-07-10T19:38:40.394Z,1.10
2018-07-10T19:41:09.738Z,0.77
2018-07-10T19:43:38.417Z,0.93
2018-07-10T19:46:07.148Z,1.20
2018-07-10T19:48:36.018Z,0.97
2018-07-10T19:51:06.914Z,0.80
2018-07-10T19:53:36.868Z,1.07
2018-07-10T19:56:05.624Z,1.00
2018-07-10T19:58:36.295Z,1.23
2018-07-10T20:01:17.258Z,1.00
2018-07-10T20:04:02.102Z,1.13
2018-07-10T20:06:43.732Z,1.07
2018-07-10T20:09:18.325Z,0.70
2018-07-10T20:12:20.759Z,0.90
2018-07-10T20:14:57.242Z,0.90
2018-07-10T20:17:28.693Z,0.90
2018-07-10T20:20:07.129Z,0.80
2018-07-10T20:22:59.455Z,1.00
2018-07-10T20:25:37.256Z,1.00
2018-07-10T20:28:13.155Z,0.90
2018-07-10T20:31:16.344Z,1.43
2018-07-10T20:35:54.131Z,1.10
2018-07-10T20:38:23.684Z,0.93
2018-07-10T20:40:54.474Z,1.17
2018-07-10T20:43:23.998Z,0.83
2018-07-10T20:45:55.398Z,1.13
2018-07-10T20:48:40.700Z,1.20
2018-07-10T20:51:10.856Z,1.30
2018-07-10T20:53:45.643Z,1.00
2018-07-10T20:56:31.126Z,1.13
2018-07-10T21:00:07.934Z,1.23
2018-07-10T21:02:51.257Z,0.93
2018-07-10T21:05:24.428Z,0.90
2018-07-10T21:08:01.615Z,1.10
2018-07-10T21:10:35.156Z,1.20
2018-07-10T21:13:09.492Z,1.00
2018-07-10T21:16:53.758Z,0.77
2018-07-10T21:19:31.109Z,0.90
2018-07-10T21:22:13.201Z,0.70
2018-07-10T21:24:47.904Z,0.93
2018-07-10T21:27:23.717Z,1.03
2018-07-10T21:30:02.725Z,0.80
2018-07-10T21:32:40.053Z,1.10
2018-07-10T21:35:09.822Z,0.70
2018-07-10T21:38:56.592Z,0.97
2018-07-10T21:42:37.173Z,0.97
2018-07-10T21:47:17.855Z,0.90
2018-07-10T21:49:50.489Z,1.40
2018-07-10T21:52:19.234Z,1.30
2018-07-10T21:54:47.940Z,1.13
2018-07-10T21:57:18.150Z,1.00
2018-07-10T21:59:51.638Z,1.43
2018-07-10T22:02:20.268Z,1.60
2018-07-10T22:04:51.628Z,1.23
2018-07-10T22:07:20.520Z,1.17
2018-07-10T22:09:49.516Z,1.40
2018-07-10T22:12:20.305Z,1.30
2018-07-10T22:14:49.768Z,1.20
2018-07-10T22:17:24.011Z,1.30
2018-07-10T22:19:54.760Z,1.30
2018-07-10T22:22:30.417Z,0.97
2018-07-10T22:25:04.238Z,1.40
2018-07-10T22:27:32.547Z,1.27
2018-07-10T22:30:07.065Z,1.00
2018-07-10T22:32:44.749Z,1.10
2018-07-10T22:35:14.868Z,1.37
2018-07-10T22:37:43.525Z,1.90
2018-07-10T22:40:12.198Z,1.20
2018-07-10T22:42:40.808Z,1.37
2018-07-10T22:45:10.240Z,1.53
2018-07-10T22:47:40.579Z,1.50
2018-07-10T22:50:21.391Z,1.60
2018-07-10T22:52:59.461Z,1.13
2018-07-10T22:55:31.110Z,1.43
2018-07-10T22:58:05.101Z,1.37
2018-07-10T23:00:36.529Z,1.40
2018-07-10T23:03:23.115Z,1.60
2018-07-10T23:05:52.763Z,1.53
2018-07-10T23:08:34.960Z,1.90
2018-07-10T23:11:05.834Z,1.80
2018-07-10T23:13:40.481Z,1.47
2018-07-10T23:16:09.370Z,1.80
2018-07-10T23:18:38.241Z,1.50
2018-07-10T23:21:07.416Z,2.20
2018-07-10T23:23:36.130Z,1.63
2018-07-10T23:26:04.888Z,1.73
2018-07-10T23:28:34.781Z,1.60
2018-07-10T23:31:04.235Z,2.33
2018-07-10T23:33:32.962Z,2.13
2018-07-10T23:36:03.215Z,1.90
2018-07-10T23:38:40.678Z,2.20
2018-07-10T23:41:15.304Z,2.10
2018-07-10T23:43:46.803Z,2.00
2018-07-10T23:46:21.493Z,2.30
2018-07-10T23:48:53.151Z,2.40
2018-07-10T23:51:21.872Z,2.10
2018-07-10T23:53:51.896Z,2.70
2018-07-10T23:56:21.779Z,2.23
2018-07-10T23:58:51.022Z,2.27
